sensor_id;sensor_type;location;lat;lon;timestamp;pressure;altitude;pressure_sealevel;temperature;humidity
65756;BME280;52489;47.502;18.940;2023-04-09T00:00:24;98737.34;;;2.43;100.00
65756;BME280;52489;47.502;18.940;2023-04-09T00:01:27;98739.22;;;2.36;100.00
65756;BME280;52489;47.502;18.940;2023-04-09T00:02:30;98741.38;;;2.39;100.00
65756;BME280;52489;47.502;18.940;2023-04-09T00:03:34;98737.88;;;2.57;100.00
65756;BME280;52489;47.502;18.940;2023-04-09T00:04:37;98743.16;;;2.50;100.00
65756;BME280;52489;47.502;18.940;2023-04-09T00:05:40;98739.59;;;2.52;100.00
65756;BME280;52489;47.502;18.940;2023-04-09T00:06:43;98739.59;;;2.52;100.00
65756;BME280;52489;47.502;18.940;2023-04-09T00:07:46;98741.38;;;2.51;100.00
65756;BME280;52489;47.502;18.940;2023-04-09T00:08:49;98751.37;;;2.59;100.00
65756;BME280;52489;47.502;18.940;2023-04-09T00:09:52;98744.84;;;2.57;100.00
65756;BME280;52489;47.502;18.940;2023-04-09T00:10:58;98748.59;;;2.49;100.00
65756;BME280;52489;47.502;18.940;2023-04-09T00:12:01;98744.41;;;2.48;100.00
65756;BME280;52489;47.502;18.940;2023-04-09T00:13:04;98745.31;;;2.42;100.00
65756;BME280;52489;47.502;18.940;2023-04-09T00:14:07;98739.91;;;2.43;100.00
65756;BME280;52489;47.502;18.940;2023-04-09T00:15:10;98745.31;;;2.42;100.00
65756;BME280;52489;47.502;18.940;2023-04-09T00:16:29;98735.66;;;2.49;100.00
65756;BME280;52489;47.502;18.940;2023-04-09T00:17:32;98738.13;;;2.56;100.00
65756;BME280;52489;47.502;18.940;2023-04-09T00:18:35;98738.25;;;2.49;100.00
65756;BME280;52489;47.502;18.940;2023-04-09T00:19:39;98744.66;;;2.58;100.00
65756;BME280;52489;47.502;18.940;2023-04-09T00:20:43;98738.44;;;2.59;100.00
65756;BME280;52489;47.502;18.940;2023-04-09T00:21:46;98742.72;;;2.65;100.00
65756;BME280;52489;47.502;18.940;2023-04-09T00:22:49;98738.25;;;2.61;100.00
65756;BME280;52489;47.502;18.940;2023-04-09T00:23:53;98744.66;;;2.46;100.00
65756;BME280;52489;47.502;18.940;2023-04-09T00:24:56;98738.25;;;2.49;100.00
65756;BME280;52489;47.502;18.940;2023-04-09T00:25:59;98744.84;;;2.45;100.00
65756;BME280;52489;47.502;18.940;2023-04-09T00:27:02;98742.06;;;2.46;100.00
65756;BME280;52489;47.502;18.940;2023-04-09T00:28:05;98741.16;;;2.41;100.00
65756;BME280;52489;47.502;18.940;2023-04-09T00:29:08;98742.38;;;2.50;100.00
65756;BME280;52489;47.502;18.940;2023-04-09T00:30:12;98744.75;;;2.52;100.00
65756;BME280;52489;47.502;18.940;2023-04-09T00:31:15;98742.97;;;2.52;100.00
65756;BME280;52489;47.502;18.940;2023-04-09T00:32:19;98735.66;;;2.49;100.00
65756;BME280;52489;47.502;18.940;2023-04-09T00:33:22;98731.47;;;2.48;100.00
65756;BME280;52489;47.502;18.940;2023-04-09T00:34:25;98739.12;;;2.55;100.00
65756;BME280;52489;47.502;18.940;2023-04-09T00:35:28;98737.88;;;2.45;100.00
65756;BME280;52489;47.502;18.940;2023-04-09T00:36:31;98735.87;;;2.47;100.00
65756;BME280;52489;47.502;18.940;2023-04-09T00:37:34;98740.59;;;2.50;100.00
65756;BME280;52489;47.502;18.940;2023-04-09T00:38:37;98739.81;;;2.50;100.00
65756;BME280;52489;47.502;18.940;2023-04-09T00:39:40;98736.63;;;2.36;100.00
65756;BME280;52489;47.502;18.940;2023-04-09T00:40:47;98737.34;;;2.43;100.00
65756;BME280;52489;47.502;18.940;2023-04-09T00:41:58;98731.47;;;2.36;100.00
65756;BME280;52489;47.502;18.940;2023-04-09T00:43:02;98737.88;;;2.34;100.00
65756;BME280;52489;47.502;18.940;2023-04-09T00:44:05;98732.81;;;2.27;100.00
65756;BME280;52489;47.502;18.940;2023-04-09T00:45:08;98733.16;;;2.31;100.00
65756;BME280;52489;47.502;18.940;2023-04-09T00:46:11;98735.72;;;2.31;100.00
65756;BME280;52489;47.502;18.940;2023-04-09T00:47:14;98728.66;;;2.38;100.00
65756;BME280;52489;47.502;18.940;2023-04-09T00:48:17;98728.78;;;2.31;100.00
65756;BME280;52489;47.502;18.940;2023-04-09T00:49:20;98732.16;;;2.32;100.00
65756;BME280;52489;47.502;18.940;2023-04-09T00:50:24;98734.75;;;2.32;100.00
65756;BME280;52489;47.502;18.940;2023-04-09T00:51:27;98732.03;;;2.26;100.00
65756;BME280;52489;47.502;18.940;2023-04-09T00:52:30;98735.31;;;2.22;100.00
65756;BME280;52489;47.502;18.940;2023-04-09T00:53:33;98732.00;;;2.15;100.00
65756;BME280;52489;47.502;18.940;2023-04-09T00:54:36;98732.94;;;2.32;100.00
65756;BME280;52489;47.502;18.940;2023-04-09T00:55:39;98736.16;;;2.16;100.00
65756;BME280;52489;47.502;18.940;2023-04-09T00:56:44;98733.03;;;2.14;100.00
65756;BME280;52489;47.502;18.940;2023-04-09T00:57:48;98733.25;;;2.12;100.00
65756;BME280;52489;47.502;18.940;2023-04-09T00:58:51;98728.53;;;2.09;100.00
65756;BME280;52489;47.502;18.940;2023-04-09T00:59:54;98727.87;;;2.14;100.00
65756;BME280;52489;47.502;18.940;2023-04-09T01:00:58;98732.34;;;2.07;100.00
65756;BME280;52489;47.502;18.940;2023-04-09T01:02:01;98732.00;;;2.15;100.00
65756;BME280;52489;47.502;18.940;2023-04-09T01:03:05;98729.19;;;2.04;100.00
65756;BME280;52489;47.502;18.940;2023-04-09T01:04:08;98726.72;;;2.10;100.00
65756;BME280;52489;47.502;18.940;2023-04-09T01:05:12;98728.41;;;2.16;100.00
65756;BME280;52489;47.502;18.940;2023-04-09T01:06:29;98727.28;;;2.12;100.00
65756;BME280;52489;47.502;18.940;2023-04-09T01:07:46;98733.69;;;2.09;100.00
65756;BME280;52489;47.502;18.940;2023-04-09T01:09:07;98727.97;;;2.07;100.00
65756;BME280;52489;47.502;18.940;2023-04-09T01:10:20;98735.72;;;2.19;100.00
65756;BME280;52489;47.502;18.940;2023-04-09T01:11:39;98732.34;;;2.18;100.00
65756;BME280;52489;47.502;18.940;2023-04-09T01:14:16;98729.75;;;2.18;100.00
65756;BME280;52489;47.502;18.940;2023-04-09T01:15:28;98730.66;;;2.12;100.00
65756;BME280;52489;47.502;18.940;2023-04-09T01:16:34;98727.87;;;2.25;100.00
65756;BME280;52489;47.502;18.940;2023-04-09T01:18:09;98730.22;;;2.15;100.00
65756;BME280;52489;47.502;18.940;2023-04-09T01:21:11;98729.97;;;2.05;100.00
65756;BME280;52489;47.502;18.940;2023-04-09T01:22:31;98730.56;;;2.19;100.00
65756;BME280;52489;47.502;18.940;2023-04-09T01:25:32;98724.56;;;2.07;100.00
65756;BME280;52489;47.502;18.940;2023-04-09T01:27:16;98732.12;;;2.20;100.00
65756;BME280;52489;47.502;18.940;2023-04-09T01:28:31;98729.69;;;2.25;100.00
65756;BME280;52489;47.502;18.940;2023-04-09T01:29:47;98726.41;;;2.18;100.00
65756;BME280;52489;47.502;18.940;2023-04-09T01:31:01;98729.44;;;2.15;100.00
65756;BME280;52489;47.502;18.940;2023-04-09T01:32:06;98730.13;;;2.22;100.00
65756;BME280;52489;47.502;18.940;2023-04-09T01:33:10;98725.38;;;2.19;100.00
65756;BME280;52489;47.502;18.940;2023-04-09T01:34:15;98731.81;;;2.28;100.00
65756;BME280;52489;47.502;18.940;2023-04-09T01:35:18;98735.97;;;2.29;100.00
65756;BME280;52489;47.502;18.940;2023-04-09T01:36:23;98731.81;;;2.28;100.00
65756;BME280;52489;47.502;18.940;2023-04-09T01:37:28;98731.47;;;2.36;100.00
65756;BME280;52489;47.502;18.940;2023-04-09T01:38:34;98730.03;;;2.52;100.00
65756;BME280;52489;47.502;18.940;2023-04-09T01:39:37;98736.31;;;2.44;100.00
65756;BME280;52489;47.502;18.940;2023-04-09T01:40:41;98727.53;;;2.45;100.00
65756;BME280;52489;47.502;18.940;2023-04-09T01:41:45;98732.50;;;2.47;100.00
65756;BME280;52489;47.502;18.940;2023-04-09T01:42:48;98732.94;;;2.56;100.00
65756;BME280;52489;47.502;18.940;2023-04-09T01:43:52;98733.41;;;2.53;100.00
65756;BME280;52489;47.502;18.940;2023-04-09T01:44:57;98734.63;;;2.50;100.00
65756;BME280;52489;47.502;18.940;2023-04-09T01:46:01;98730.56;;;2.54;100.00
65756;BME280;52489;47.502;18.940;2023-04-09T01:47:07;98735.41;;;2.62;100.00
65756;BME280;52489;47.502;18.940;2023-04-09T01:48:13;98735.97;;;2.64;100.00
65756;BME280;52489;47.502;18.940;2023-04-09T01:49:17;98734.06;;;2.60;100.00
65756;BME280;52489;47.502;18.940;2023-04-09T01:50:20;98734.50;;;2.68;100.00
65756;BME280;52489;47.502;18.940;2023-04-09T01:51:23;98731.84;;;2.63;100.00
65756;BME280;52489;47.502;18.940;2023-04-09T01:52:29;98731.84;;;2.63;100.00
65756;BME280;52489;47.502;18.940;2023-04-09T01:53:32;98729.78;;;2.65;100.00
65756;BME280;52489;47.502;18.940;2023-04-09T01:54:35;98734.50;;;2.68;100.00
65756;BME280;52489;47.502;18.940;2023-04-09T01:55:38;98735.75;;;2.66;100.00
65756;BME280;52489;47.502;18.940;2023-04-09T01:56:46;98738.34;;;2.54;100.00
65756;BME280;52489;47.502;18.940;2023-04-09T01:57:49;98737.22;;;2.50;100.00
65756;BME280;52489;47.502;18.940;2023-04-09T01:58:52;98733.41;;;2.53;100.00
65756;BME280;52489;47.502;18.940;2023-04-09T01:59:56;98736.56;;;2.55;100.00
65756;BME280;52489;47.502;18.940;2023-04-09T02:01:05;98737.34;;;2.67;100.00
65756;BME280;52489;47.502;18.940;2023-04-09T02:02:12;98736.19;;;2.63;100.00
65756;BME280;52489;47.502;18.940;2023-04-09T02:04:35;98734.88;;;2.48;100.00
65756;BME280;52489;47.502;18.940;2023-04-09T02:05:56;98730.56;;;2.42;100.00
65756;BME280;52489;47.502;18.940;2023-04-09T02:07:13;98742.25;;;2.33;100.00
65756;BME280;52489;47.502;18.940;2023-04-09T02:08:20;98734.63;;;2.26;100.00
65756;BME280;52489;47.502;18.940;2023-04-09T02:09:24;98735.06;;;2.23;100.00
65756;BME280;52489;47.502;18.940;2023-04-09T02:10:34;98732.69;;;2.34;100.00
65756;BME280;52489;47.502;18.940;2023-04-09T02:11:40;98731.13;;;2.33;100.00
65756;BME280;52489;47.502;18.940;2023-04-09T02:12:51;98729.69;;;2.25;100.00
65756;BME280;52489;47.502;18.940;2023-04-09T02:13:55;98729.69;;;2.25;100.00
65756;BME280;52489;47.502;18.940;2023-04-09T02:14:59;98723.38;;;2.21;100.00
65756;BME280;52489;47.502;18.940;2023-04-09T02:16:04;98727.09;;;2.13;100.00
65756;BME280;52489;47.502;18.940;2023-04-09T02:17:07;98725.63;;;2.29;100.00
65756;BME280;52489;47.502;18.940;2023-04-09T02:18:28;98731.59;;;2.30;100.00
65756;BME280;52489;47.502;18.940;2023-04-09T02:19:43;98723.38;;;2.21;100.00
65756;BME280;52489;47.502;18.940;2023-04-09T02:20:47;98724.38;;;2.20;100.00
65756;BME280;52489;47.502;18.940;2023-04-09T02:21:50;98724.12;;;2.10;100.00
65756;BME280;52489;47.502;18.940;2023-04-09T02:22:53;98718.97;;;2.21;100.00
65756;BME280;52489;47.502;18.940;2023-04-09T02:23:56;98721.56;;;2.45;100.00
65756;BME280;52489;47.502;18.940;2023-04-09T02:24:58;98724.16;;;2.45;100.00
65756;BME280;52489;47.502;18.940;2023-04-09T02:26:01;98722.59;;;2.32;100.00
65756;BME280;52489;47.502;18.940;2023-04-09T02:27:05;98721.03;;;2.19;100.00
65756;BME280;52489;47.502;18.940;2023-04-09T02:28:08;98727.78;;;2.32;100.00
65756;BME280;52489;47.502;18.940;2023-04-09T02:29:11;98721.47;;;2.28;100.00
65756;BME280;52489;47.502;18.940;2023-04-09T02:30:14;98718.78;;;2.23;100.00
65756;BME280;52489;47.502;18.940;2023-04-09T02:31:17;98715.63;;;2.21;100.00
65756;BME280;52489;47.502;18.940;2023-04-09T02:32:21;98722.25;;;2.28;100.00
65756;BME280;52489;47.502;18.940;2023-04-09T02:33:24;98722.13;;;2.23;100.00
65756;BME280;52489;47.502;18.940;2023-04-09T02:34:27;98716.41;;;2.21;100.00
65756;BME280;52489;47.502;18.940;2023-04-09T02:35:29;98722.13;;;2.23;100.00
65756;BME280;52489;47.502;18.940;2023-04-09T02:36:32;98718.09;;;2.27;100.00
65756;BME280;52489;47.502;18.940;2023-04-09T02:37:35;98720.78;;;2.33;100.00
65756;BME280;52489;47.502;18.940;2023-04-09T02:38:41;98710.44;;;2.33;100.00
65756;BME280;52489;47.502;18.940;2023-04-09T02:39:45;98722.91;;;2.24;100.00
65756;BME280;52489;47.502;18.940;2023-04-09T02:40:47;98717.28;;;2.15;100.00
65756;BME280;52489;47.502;18.940;2023-04-09T02:41:51;98725.16;;;2.20;100.00
65756;BME280;52489;47.502;18.940;2023-04-09T02:42:54;98715.50;;;2.16;100.00
65756;BME280;52489;47.502;18.940;2023-04-09T02:43:57;98718.97;;;2.21;100.00
65756;BME280;52489;47.502;18.940;2023-04-09T02:44:59;98719.78;;;2.22;100.00
65756;BME280;52489;47.502;18.940;2023-04-09T02:46:02;98717.09;;;2.17;100.00
65756;BME280;52489;47.502;18.940;2023-04-09T02:47:05;98719.44;;;2.18;100.00
65756;BME280;52489;47.502;18.940;2023-04-09T02:48:09;98726.06;;;2.26;100.00
65756;BME280;52489;47.502;18.940;2023-04-09T02:49:12;98718.19;;;2.21;100.00
65756;BME280;52489;47.502;18.940;2023-04-09T02:50:15;98721.13;;;2.24;100.00
65756;BME280;52489;47.502;18.940;2023-04-09T02:51:19;98723.03;;;2.29;100.00
65756;BME280;52489;47.502;18.940;2023-04-09T02:52:22;98713.03;;;2.21;100.00
65756;BME280;52489;47.502;18.940;2023-04-09T02:53:26;98718.31;;;2.14;100.00
65756;BME280;52489;47.502;18.940;2023-04-09T02:54:29;98721.91;;;2.13;100.00
65756;BME280;52489;47.502;18.940;2023-04-09T02:55:32;98714.25;;;2.07;100.00
65756;BME280;52489;47.502;18.940;2023-04-09T02:56:35;98720.66;;;2.16;100.00
65756;BME280;52489;47.502;18.940;2023-04-09T02:57:38;98715.63;;;2.21;100.00
65756;BME280;52489;47.502;18.940;2023-04-09T02:58:41;98717.41;;;2.20;100.00
65756;BME280;52489;47.502;18.940;2023-04-09T02:59:45;98718.53;;;2.13;100.00
65756;BME280;52489;47.502;18.940;2023-04-09T03:00:48;98719.31;;;2.13;100.00
65756;BME280;52489;47.502;18.940;2023-04-09T03:01:51;98718.44;;;2.19;100.00
65756;BME280;52489;47.502;18.940;2023-04-09T03:02:54;98725.06;;;2.27;100.00
65756;BME280;52489;47.502;18.940;2023-04-09T03:03:57;98722.13;;;2.23;100.00
65756;BME280;52489;47.502;18.940;2023-04-09T03:05:00;98720.13;;;2.14;100.00
65756;BME280;52489;47.502;18.940;2023-04-09T03:06:03;98723.25;;;2.16;100.00
65756;BME280;52489;47.502;18.940;2023-04-09T03:07:06;98721.09;;;2.13;100.00
65756;BME280;52489;47.502;18.940;2023-04-09T03:08:10;98722.00;;;2.18;100.00
65756;BME280;52489;47.502;18.940;2023-04-09T03:09:12;98716.06;;;2.18;100.00
65756;BME280;52489;47.502;18.940;2023-04-09T03:10:15;98715.16;;;2.12;100.00
65756;BME280;52489;47.502;18.940;2023-04-09T03:11:18;98724.25;;;2.15;100.00
65756;BME280;52489;47.502;18.940;2023-04-09T03:12:21;98721.34;;;2.11;100.00
65756;BME280;52489;47.502;18.940;2023-04-09T03:13:26;98717.97;;;2.11;100.00
65756;BME280;52489;47.502;18.940;2023-04-09T03:14:29;98722.03;;;2.30;100.00
65756;BME280;52489;47.502;18.940;2023-04-09T03:15:32;98718.78;;;2.23;100.00
65756;BME280;52489;47.502;18.940;2023-04-09T03:16:35;98720.22;;;2.19;100.00
65756;BME280;52489;47.502;18.940;2023-04-09T03:17:47;98716.06;;;2.41;100.00
65756;BME280;52489;47.502;18.940;2023-04-09T03:18:51;98720.47;;;2.41;100.00
65756;BME280;52489;47.502;18.940;2023-04-09T03:19:54;98713.63;;;2.46;100.00
65756;BME280;52489;47.502;18.940;2023-04-09T03:20:57;98722.03;;;2.42;100.00
65756;BME280;52489;47.502;18.940;2023-04-09T03:22:00;98719.00;;;2.45;100.00
65756;BME280;52489;47.502;18.940;2023-04-09T03:23:03;98717.88;;;2.29;100.00
65756;BME280;52489;47.502;18.940;2023-04-09T03:24:07;98721.94;;;2.37;100.00
65756;BME280;52489;47.502;18.940;2023-04-09T03:25:09;98717.09;;;2.40;100.00
65756;BME280;52489;47.502;18.940;2023-04-09T03:26:12;98721.37;;;2.58;100.00
65756;BME280;52489;47.502;18.940;2023-04-09T03:27:15;98718.53;;;2.48;100.00
65756;BME280;52489;47.502;18.940;2023-04-09T03:28:18;98720.91;;;2.38;100.00
65756;BME280;52489;47.502;18.940;2023-04-09T03:29:21;98725.63;;;2.29;100.00
65756;BME280;52489;47.502;18.940;2023-04-09T03:30:24;98723.81;;;2.30;100.00
65756;BME280;52489;47.502;18.940;2023-04-09T03:31:27;98723.50;;;2.38;100.00
65756;BME280;52489;47.502;18.940;2023-04-09T03:32:30;98720.22;;;2.42;100.00
65756;BME280;52489;47.502;18.940;2023-04-09T03:33:33;98721.37;;;2.46;100.00
65756;BME280;52489;47.502;18.940;2023-04-09T03:34:36;98724.62;;;2.42;100.00
65756;BME280;52489;47.502;18.940;2023-04-09T03:35:39;98721.50;;;2.52;100.00
65756;BME280;52489;47.502;18.940;2023-04-09T03:36:41;98718.09;;;2.51;100.00
65756;BME280;52489;47.502;18.940;2023-04-09T03:37:44;98719.34;;;2.48;100.00
65756;BME280;52489;47.502;18.940;2023-04-09T03:38:48;98722.16;;;2.47;100.00
65756;BME280;52489;47.502;18.940;2023-04-09T03:39:51;98721.13;;;2.48;100.00
65756;BME280;52489;47.502;18.940;2023-04-09T03:40:55;98722.81;;;2.54;100.00
65756;BME280;52489;47.502;18.940;2023-04-09T03:41:58;98715.28;;;2.64;100.00
65756;BME280;52489;47.502;18.940;2023-04-09T03:43:01;98718.00;;;2.69;100.00
65756;BME280;52489;47.502;18.940;2023-04-09T03:44:04;98727.97;;;2.66;100.00
65756;BME280;52489;47.502;18.940;2023-04-09T03:45:07;98720.59;;;2.58;100.00
65756;BME280;52489;47.502;18.940;2023-04-09T03:46:14;98721.81;;;2.55;100.00
65756;BME280;52489;47.502;18.940;2023-04-09T03:47:17;98724.94;;;2.57;100.00
65756;BME280;52489;47.502;18.940;2023-04-09T03:48:21;98728.34;;;2.46;100.00
65756;BME280;52489;47.502;18.940;2023-04-09T03:49:24;98723.06;;;2.53;100.00
65756;BME280;52489;47.502;18.940;2023-04-09T03:50:26;98724.84;;;2.52;100.00
65756;BME280;52489;47.502;18.940;2023-04-09T03:51:29;98722.59;;;2.56;100.00
65756;BME280;52489;47.502;18.940;2023-04-09T03:52:34;98718.91;;;2.52;100.00
65756;BME280;52489;47.502;18.940;2023-04-09T03:53:37;98726.41;;;2.53;100.00
65756;BME280;52489;47.502;18.940;2023-04-09T03:54:39;98716.97;;;2.47;100.00
65756;BME280;52489;47.502;18.940;2023-04-09T03:55:42;98721.69;;;2.38;100.00
65756;BME280;52489;47.502;18.940;2023-04-09T03:56:46;98724.62;;;2.42;100.00
65756;BME280;52489;47.502;18.940;2023-04-09T03:57:48;98729.13;;;2.46;100.00
65756;BME280;52489;47.502;18.940;2023-04-09T03:58:52;98725.31;;;2.49;100.00
65756;BME280;52489;47.502;18.940;2023-04-09T03:59:55;98726.88;;;2.50;100.00
65756;BME280;52489;47.502;18.940;2023-04-09T04:00:58;98732.03;;;2.50;100.00
65756;BME280;52489;47.502;18.940;2023-04-09T04:02:01;98727.19;;;2.54;100.00
65756;BME280;52489;47.502;18.940;2023-04-09T04:03:04;98734.50;;;2.57;100.00
65756;BME280;52489;47.502;18.940;2023-04-09T04:04:07;98727.31;;;2.59;100.00
65756;BME280;52489;47.502;18.940;2023-04-09T04:05:10;98736.09;;;2.46;100.00
65756;BME280;52489;47.502;18.940;2023-04-09T04:06:13;98732.81;;;2.39;100.00
65756;BME280;52489;47.502;18.940;2023-04-09T04:07:17;98733.50;;;2.34;100.00
65756;BME280;52489;47.502;18.940;2023-04-09T04:08:20;98735.84;;;2.24;100.00
65756;BME280;52489;47.502;18.940;2023-04-09T04:09:23;98736.31;;;2.33;100.00
65756;BME280;52489;47.502;18.940;2023-04-09T04:10:26;98740.03;;;2.48;100.00
65756;BME280;52489;47.502;18.940;2023-04-09T04:11:29;98738.00;;;2.50;100.00
65756;BME280;52489;47.502;18.940;2023-04-09T04:12:32;98738.44;;;2.47;100.00
65756;BME280;52489;47.502;18.940;2023-04-09T04:13:35;98735.75;;;2.54;100.00
65756;BME280;52489;47.502;18.940;2023-04-09T04:14:38;98734.84;;;2.60;100.00
65756;BME280;52489;47.502;18.940;2023-04-09T04:15:41;98733.16;;;2.54;100.00
65756;BME280;52489;47.502;18.940;2023-04-09T04:16:44;98736.88;;;2.46;100.00
65756;BME280;52489;47.502;18.940;2023-04-09T04:17:47;98740.38;;;2.52;100.00
65756;BME280;52489;47.502;18.940;2023-04-09T04:18:50;98735.97;;;2.53;100.00
65756;BME280;52489;47.502;18.940;2023-04-09T04:19:54;98733.72;;;2.56;100.00
65756;BME280;52489;47.502;18.940;2023-04-09T04:20:57;98738.25;;;2.49;100.00
65756;BME280;52489;47.502;18.940;2023-04-09T04:21:59;98732.16;;;2.55;100.00
65756;BME280;52489;47.502;18.940;2023-04-09T04:23:03;98732.72;;;2.57;100.00
65756;BME280;52489;47.502;18.940;2023-04-09T04:24:07;98741.72;;;2.55;100.00
65756;BME280;52489;47.502;18.940;2023-04-09T04:25:10;98736.56;;;2.55;100.00
65756;BME280;52489;47.502;18.940;2023-04-09T04:26:13;98737.09;;;2.57;100.00
65756;BME280;52489;47.502;18.940;2023-04-09T04:27:16;98738.00;;;2.62;100.00
65756;BME280;52489;47.502;18.940;2023-04-09T04:28:19;98742.06;;;2.58;100.00
65756;BME280;52489;47.502;18.940;2023-04-09T04:29:21;98741.16;;;2.64;100.00
65756;BME280;52489;47.502;18.940;2023-04-09T04:30:24;98741.16;;;2.76;100.00
65756;BME280;52489;47.502;18.940;2023-04-09T04:31:27;98740.38;;;2.76;100.00
65756;BME280;52489;47.502;18.940;2023-04-09T04:32:31;98745.75;;;2.86;100.00
65756;BME280;52489;47.502;18.940;2023-04-09T04:33:34;98745.41;;;2.82;100.00
65756;BME280;52489;47.502;18.940;2023-04-09T04:34:37;98740.25;;;2.82;100.00
65756;BME280;52489;47.502;18.940;2023-04-09T04:35:40;98740.69;;;2.91;100.00
65756;BME280;52489;47.502;18.940;2023-04-09T04:36:43;98746.19;;;2.83;100.00
65756;BME280;52489;47.502;18.940;2023-04-09T04:37:50;98753.06;;;2.77;100.00
65756;BME280;52489;47.502;18.940;2023-04-09T04:38:53;98747.75;;;2.84;100.00
65756;BME280;52489;47.502;18.940;2023-04-09T04:39:56;98750.72;;;2.87;100.00
65756;BME280;52489;47.502;18.940;2023-04-09T04:40:59;98757.34;;;2.83;100.00
65756;BME280;52489;47.502;18.940;2023-04-09T04:42:02;98750.72;;;2.87;100.00
65756;BME280;52489;47.502;18.940;2023-04-09T04:43:05;98746.75;;;2.96;100.00
65756;BME280;52489;47.502;18.940;2023-04-09T04:44:08;98761.81;;;3.00;100.00
65756;BME280;52489;47.502;18.940;2023-04-09T04:45:11;98747.28;;;2.99;100.00
65756;BME280;52489;47.502;18.940;2023-04-09T04:46:14;98754.53;;;2.96;100.00
65756;BME280;52489;47.502;18.940;2023-04-09T04:47:17;98751.22;;;3.01;100.00
65756;BME280;52489;47.502;18.940;2023-04-09T04:48:21;98747.97;;;3.06;100.00
65756;BME280;52489;47.502;18.940;2023-04-09T04:49:24;98761.03;;;2.99;100.00
65756;BME280;52489;47.502;18.940;2023-04-09T04:50:27;98756.78;;;2.93;100.00
65756;BME280;52489;47.502;18.940;2023-04-09T04:51:30;98754.19;;;2.93;100.00
65756;BME280;52489;47.502;18.940;2023-04-09T04:52:35;98754.06;;;3.00;100.00
65756;BME280;52489;47.502;18.940;2023-04-09T04:53:38;98748.19;;;3.04;100.00
65756;BME280;52489;47.502;18.940;2023-04-09T04:54:40;98752.81;;;3.02;100.00
65756;BME280;52489;47.502;18.940;2023-04-09T04:55:43;98761.03;;;2.99;100.00
65756;BME280;52489;47.502;18.940;2023-04-09T04:56:46;98753.28;;;2.99;100.00
65756;BME280;52489;47.502;18.940;2023-04-09T04:57:50;98757.63;;;3.10;100.00
65756;BME280;52489;47.502;18.940;2023-04-09T04:58:54;98749.63;;;3.24;100.00
65756;BME280;52489;47.502;18.940;2023-04-09T04:59:57;98751.19;;;3.25;100.00
65756;BME280;52489;47.502;18.940;2023-04-09T05:01:00;98756.94;;;3.27;100.00
65756;BME280;52489;47.502;18.940;2023-04-09T05:02:03;98758.94;;;3.25;100.00
65756;BME280;52489;47.502;18.940;2023-04-09T05:03:06;98756.16;;;3.26;100.00
65756;BME280;52489;47.502;18.940;2023-04-09T05:04:09;98753.00;;;3.24;100.00
65756;BME280;52489;47.502;18.940;2023-04-09T05:05:12;98753.00;;;3.24;100.00
65756;BME280;52489;47.502;18.940;2023-04-09T05:06:15;98754.81;;;3.24;100.00
65756;BME280;52489;47.502;18.940;2023-04-09T05:07:18;98754.34;;;3.27;100.00
65756;BME280;52489;47.502;18.940;2023-04-09T05:08:21;98759.09;;;3.18;100.00
65756;BME280;52489;47.502;18.940;2023-04-09T05:09:24;98764.41;;;3.11;100.00
65756;BME280;52489;47.502;18.940;2023-04-09T05:10:27;98754.47;;;3.20;100.00
65756;BME280;52489;47.502;18.940;2023-04-09T05:11:30;98759.06;;;3.30;100.00
65756;BME280;52489;47.502;18.940;2023-04-09T05:12:33;98757.97;;;3.26;100.00
65756;BME280;52489;47.502;18.940;2023-04-09T05:13:36;98763.47;;;3.29;100.00
65756;BME280;52489;47.502;18.940;2023-04-09T05:14:39;98755.56;;;3.36;100.00
65756;BME280;52489;47.502;18.940;2023-04-09T05:15:42;98764.81;;;3.32;100.00
65756;BME280;52489;47.502;18.940;2023-04-09T05:16:45;98754.53;;;3.37;100.00
65756;BME280;52489;47.502;18.940;2023-04-09T05:17:48;98760.41;;;3.32;100.00
65756;BME280;52489;47.502;18.940;2023-04-09T05:18:52;98763.56;;;3.34;100.00
65756;BME280;52489;47.502;18.940;2023-04-09T05:19:55;98754.09;;;3.28;100.00
65756;BME280;52489;47.502;18.940;2023-04-09T05:20:59;98759.63;;;3.32;100.00
65756;BME280;52489;47.502;18.940;2023-04-09T05:22:02;98764.03;;;3.31;100.00
65756;BME280;52489;47.502;18.940;2023-04-09T05:23:05;98756.00;;;3.33;100.00
65756;BME280;52489;47.502;18.940;2023-04-09T05:24:11;98761.28;;;3.38;100.00
65756;BME280;52489;47.502;18.940;2023-04-09T05:25:14;98756.66;;;3.40;100.00
65756;BME280;52489;47.502;18.940;2023-04-09T05:26:17;98757.69;;;3.39;100.00
65756;BME280;52489;47.502;18.940;2023-04-09T05:27:21;98756.75;;;3.45;100.00
65756;BME280;52489;47.502;18.940;2023-04-09T05:28:26;98762.50;;;3.47;100.00
65756;BME280;52489;47.502;18.940;2023-04-09T05:29:29;98756.19;;;3.43;100.00
65756;BME280;52489;47.502;18.940;2023-04-09T05:30:32;98761.78;;;3.52;100.00
65756;BME280;52489;47.502;18.940;2023-04-09T05:31:35;98766.97;;;3.52;100.00
65756;BME280;52489;47.502;18.940;2023-04-09T05:32:38;98766.44;;;3.50;100.00
65756;BME280;52489;47.502;18.940;2023-04-09T05:33:42;98764.75;;;3.55;100.00
65756;BME280;52489;47.502;18.940;2023-04-09T05:34:45;98769.91;;;3.55;100.00
65756;BME280;52489;47.502;18.940;2023-04-09T05:35:48;98768.09;;;3.56;100.00
65756;BME280;52489;47.502;18.940;2023-04-09T05:36:51;98765.06;;;3.59;100.00
65756;BME280;52489;47.502;18.940;2023-04-09T05:37:54;98769.88;;;3.67;99.70
65756;BME280;52489;47.502;18.940;2023-04-09T05:38:57;98772.78;;;3.71;99.25
65756;BME280;52489;47.502;18.940;2023-04-09T05:40:00;98767.59;;;3.71;99.26
65756;BME280;52489;47.502;18.940;2023-04-09T05:41:03;98770.75;;;3.73;98.88
65756;BME280;52489;47.502;18.940;2023-04-09T05:42:06;98768.28;;;3.66;99.17
65756;BME280;52489;47.502;18.940;2023-04-09T05:43:09;98765.19;;;3.52;99.37